sensor_id;sensor_type;location;lat;lon;timestamp;temperature;humidity
52103;DHT22;38101;53.126;6.878;2023-03-07T00:01:03;3.70;99.90
52103;DHT22;38101;53.126;6.878;2023-03-07T00:03:29;3.70;99.90
52103;DHT22;38101;53.126;6.878;2023-03-07T00:06:02;3.70;99.90
52103;DHT22;38101;53.126;6.878;2023-03-07T00:08:29;3.70;99.90
52103;DHT22;38101;53.126;6.878;2023-03-07T00:10:54;3.70;99.90
52103;DHT22;38101;53.126;6.878;2023-03-07T00:13:20;3.70;99.90
52103;DHT22;38101;53.126;6.878;2023-03-07T00:15:46;3.70;99.90
52103;DHT22;38101;53.126;6.878;2023-03-07T00:18:11;3.70;99.90
52103;DHT22;38101;53.126;6.878;2023-03-07T00:20:37;3.70;99.90
52103;DHT22;38101;53.126;6.878;2023-03-07T00:23:03;3.70;99.90
52103;DHT22;38101;53.126;6.878;2023-03-07T00:25:29;3.80;99.90
52103;DHT22;38101;53.126;6.878;2023-03-07T00:27:54;3.90;99.90
52103;DHT22;38101;53.126;6.878;2023-03-07T00:30:20;3.90;99.90
52103;DHT22;38101;53.126;6.878;2023-03-07T00:32:46;4.00;99.90
52103;DHT22;38101;53.126;6.878;2023-03-07T00:35:11;4.00;99.90
52103;DHT22;38101;53.126;6.878;2023-03-07T00:37:37;4.00;99.90
52103;DHT22;38101;53.126;6.878;2023-03-07T00:40:03;4.10;99.90
52103;DHT22;38101;53.126;6.878;2023-03-07T00:42:30;4.10;99.90
52103;DHT22;38101;53.126;6.878;2023-03-07T00:44:56;4.10;99.90
52103;DHT22;38101;53.126;6.878;2023-03-07T00:47:22;4.10;99.90
52103;DHT22;38101;53.126;6.878;2023-03-07T00:49:47;4.00;99.90
52103;DHT22;38101;53.126;6.878;2023-03-07T00:52:13;3.90;99.90
52103;DHT22;38101;53.126;6.878;2023-03-07T00:54:38;3.80;99.90
52103;DHT22;38101;53.126;6.878;2023-03-07T00:57:04;3.80;99.90
52103;DHT22;38101;53.126;6.878;2023-03-07T00:59:30;3.80;99.90
52103;DHT22;38101;53.126;6.878;2023-03-07T01:01:55;3.70;99.90
52103;DHT22;38101;53.126;6.878;2023-03-07T01:04:21;3.70;99.90
52103;DHT22;38101;53.126;6.878;2023-03-07T01:06:47;3.70;99.90
52103;DHT22;38101;53.126;6.878;2023-03-07T01:09:12;3.70;99.90
52103;DHT22;38101;53.126;6.878;2023-03-07T01:11:38;3.70;99.90
52103;DHT22;38101;53.126;6.878;2023-03-07T01:14:05;3.70;99.90
52103;DHT22;38101;53.126;6.878;2023-03-07T01:16:32;3.70;99.90
52103;DHT22;38101;53.126;6.878;2023-03-07T01:19:01;3.70;99.90
52103;DHT22;38101;53.126;6.878;2023-03-07T01:23:54;3.80;99.90
52103;DHT22;38101;53.126;6.878;2023-03-07T01:26:28;3.70;99.90
52103;DHT22;38101;53.126;6.878;2023-03-07T01:28:57;3.70;99.90
52103;DHT22;38101;53.126;6.878;2023-03-07T01:31:23;3.70;99.90
52103;DHT22;38101;53.126;6.878;2023-03-07T01:33:49;3.70;99.90
52103;DHT22;38101;53.126;6.878;2023-03-07T01:36:24;3.70;99.90
52103;DHT22;38101;53.126;6.878;2023-03-07T01:39:19;3.70;99.90
52103;DHT22;38101;53.126;6.878;2023-03-07T01:41:45;3.80;99.90
52103;DHT22;38101;53.126;6.878;2023-03-07T01:44:16;3.70;99.90
52103;DHT22;38101;53.126;6.878;2023-03-07T01:46:55;3.70;99.90
52103;DHT22;38101;53.126;6.878;2023-03-07T01:52:02;3.70;99.90
52103;DHT22;38101;53.126;6.878;2023-03-07T01:54:31;3.70;99.90
52103;DHT22;38101;53.126;6.878;2023-03-07T01:56:57;3.70;99.90
52103;DHT22;38101;53.126;6.878;2023-03-07T01:59:29;3.80;99.90
52103;DHT22;38101;53.126;6.878;2023-03-07T02:02:00;3.80;99.90
52103;DHT22;38101;53.126;6.878;2023-03-07T02:04:33;3.80;99.90
52103;DHT22;38101;53.126;6.878;2023-03-07T02:07:02;3.80;99.90
52103;DHT22;38101;53.126;6.878;2023-03-07T02:09:30;3.80;99.90
52103;DHT22;38101;53.126;6.878;2023-03-07T02:11:57;3.80;99.90
52103;DHT22;38101;53.126;6.878;2023-03-07T02:14:25;3.80;99.90
52103;DHT22;38101;53.126;6.878;2023-03-07T02:16:51;4.00;99.90
52103;DHT22;38101;53.126;6.878;2023-03-07T02:22:17;3.70;99.90
52103;DHT22;38101;53.126;6.878;2023-03-07T02:24:57;3.70;99.90
52103;DHT22;38101;53.126;6.878;2023-03-07T02:27:24;3.70;99.90
52103;DHT22;38101;53.126;6.878;2023-03-07T02:29:51;3.70;99.90
52103;DHT22;38101;53.126;6.878;2023-03-07T02:32:17;3.70;99.90
52103;DHT22;38101;53.126;6.878;2023-03-07T02:34:42;3.70;99.90
52103;DHT22;38101;53.126;6.878;2023-03-07T02:37:44;3.60;99.90
52103;DHT22;38101;53.126;6.878;2023-03-07T02:40:05;3.60;99.90
52103;DHT22;38101;53.126;6.878;2023-03-07T02:42:36;3.60;99.90
52103;DHT22;38101;53.126;6.878;2023-03-07T02:45:04;3.70;99.90
52103;DHT22;38101;53.126;6.878;2023-03-07T02:47:31;3.60;99.90
52103;DHT22;38101;53.126;6.878;2023-03-07T02:49:57;3.60;99.90
52103;DHT22;38101;53.126;6.878;2023-03-07T02:52:23;3.60;99.90
52103;DHT22;38101;53.126;6.878;2023-03-07T02:54:49;3.60;99.90
52103;DHT22;38101;53.126;6.878;2023-03-07T02:57:14;3.70;99.90
52103;DHT22;38101;53.126;6.878;2023-03-07T02:59:40;3.60;99.90
52103;DHT22;38101;53.126;6.878;2023-03-07T03:02:06;3.60;99.90
52103;DHT22;38101;53.126;6.878;2023-03-07T03:04:32;3.60;99.90
52103;DHT22;38101;53.126;6.878;2023-03-07T03:06:58;3.60;99.90
52103;DHT22;38101;53.126;6.878;2023-03-07T03:09:23;3.60;99.90
52103;DHT22;38101;53.126;6.878;2023-03-07T03:11:49;3.60;99.90
52103;DHT22;38101;53.126;6.878;2023-03-07T03:14:15;3.60;99.90
52103;DHT22;38101;53.126;6.878;2023-03-07T03:16:40;3.60;99.90
52103;DHT22;38101;53.126;6.878;2023-03-07T03:19:06;3.60;99.90
52103;DHT22;38101;53.126;6.878;2023-03-07T03:21:32;3.50;99.90
52103;DHT22;38101;53.126;6.878;2023-03-07T03:24:02;3.50;99.90
52103;DHT22;38101;53.126;6.878;2023-03-07T03:26:28;3.50;99.90
52103;DHT22;38101;53.126;6.878;2023-03-07T03:28:53;3.50;99.90
52103;DHT22;38101;53.126;6.878;2023-03-07T03:31:19;3.50;99.90
52103;DHT22;38101;53.126;6.878;2023-03-07T03:33:45;3.40;99.90
52103;DHT22;38101;53.126;6.878;2023-03-07T03:36:15;3.40;99.90
52103;DHT22;38101;53.126;6.878;2023-03-07T03:38:41;3.30;99.90
52103;DHT22;38101;53.126;6.878;2023-03-07T03:41:10;3.40;99.90
52103;DHT22;38101;53.126;6.878;2023-03-07T03:43:36;3.30;99.90
52103;DHT22;38101;53.126;6.878;2023-03-07T03:46:02;3.30;99.90
52103;DHT22;38101;53.126;6.878;2023-03-07T03:48:28;3.30;99.90
52103;DHT22;38101;53.126;6.878;2023-03-07T03:51:08;3.30;99.90
52103;DHT22;38101;53.126;6.878;2023-03-07T03:53:36;3.40;99.90
52103;DHT22;38101;53.126;6.878;2023-03-07T03:56:08;3.60;99.90
52103;DHT22;38101;53.126;6.878;2023-03-07T03:58:34;3.50;99.90
52103;DHT22;38101;53.126;6.878;2023-03-07T04:01:01;3.70;99.90
52103;DHT22;38101;53.126;6.878;2023-03-07T04:03:34;3.40;99.90
52103;DHT22;38101;53.126;6.878;2023-03-07T04:06:06;3.40;99.90
52103;DHT22;38101;53.126;6.878;2023-03-07T04:08:33;3.40;99.90
52103;DHT22;38101;53.126;6.878;2023-03-07T04:10:59;3.50;99.90
52103;DHT22;38101;53.126;6.878;2023-03-07T04:13:25;3.50;99.90
52103;DHT22;38101;53.126;6.878;2023-03-07T04:15:51;3.60;99.90
52103;DHT22;38101;53.126;6.878;2023-03-07T04:18:19;3.60;99.90
52103;DHT22;38101;53.126;6.878;2023-03-07T04:20:46;3.60;99.90
52103;DHT22;38101;53.126;6.878;2023-03-07T04:23:12;3.50;99.90
52103;DHT22;38101;53.126;6.878;2023-03-07T04:25:37;3.50;99.90
52103;DHT22;38101;53.126;6.878;2023-03-07T04:28:03;3.50;99.90
52103;DHT22;38101;53.126;6.878;2023-03-07T04:30:29;3.50;99.90
52103;DHT22;38101;53.126;6.878;2023-03-07T04:32:54;3.50;99.90
52103;DHT22;38101;53.126;6.878;2023-03-07T04:35:20;3.40;99.90
52103;DHT22;38101;53.126;6.878;2023-03-07T04:37:46;3.40;99.90
52103;DHT22;38101;53.126;6.878;2023-03-07T04:40:12;3.40;99.90
52103;DHT22;38101;53.126;6.878;2023-03-07T04:42:37;3.30;99.90
52103;DHT22;38101;53.126;6.878;2023-03-07T04:45:03;3.30;99.90
52103;DHT22;38101;53.126;6.878;2023-03-07T04:47:29;3.30;99.90
52103;DHT22;38101;53.126;6.878;2023-03-07T04:49:55;3.30;99.90
52103;DHT22;38101;53.126;6.878;2023-03-07T04:52:20;3.30;99.90
52103;DHT22;38101;53.126;6.878;2023-03-07T04:54:46;3.30;99.90
52103;DHT22;38101;53.126;6.878;2023-03-07T04:57:12;3.20;99.90
52103;DHT22;38101;53.126;6.878;2023-03-07T04:59:37;3.10;99.90
52103;DHT22;38101;53.126;6.878;2023-03-07T05:02:08;3.10;99.90
52103;DHT22;38101;53.126;6.878;2023-03-07T05:04:36;3.10;99.90
52103;DHT22;38101;53.126;6.878;2023-03-07T05:07:02;3.20;99.90
52103;DHT22;38101;53.126;6.878;2023-03-07T05:09:28;3.20;99.90
52103;DHT22;38101;53.126;6.878;2023-03-07T05:11:54;3.30;99.90
52103;DHT22;38101;53.126;6.878;2023-03-07T05:14:20;3.10;99.90
52103;DHT22;38101;53.126;6.878;2023-03-07T05:16:46;3.20;99.90
52103;DHT22;38101;53.126;6.878;2023-03-07T05:19:12;3.20;99.90
52103;DHT22;38101;53.126;6.878;2023-03-07T05:21:38;3.20;99.90
52103;DHT22;38101;53.126;6.878;2023-03-07T05:24:06;3.20;99.90
52103;DHT22;38101;53.126;6.878;2023-03-07T05:26:32;3.20;99.90
52103;DHT22;38101;53.126;6.878;2023-03-07T05:28:58;3.30;99.90
52103;DHT22;38101;53.126;6.878;2023-03-07T05:31:24;3.30;99.90
52103;DHT22;38101;53.126;6.878;2023-03-07T05:33:50;3.30;99.90
52103;DHT22;38101;53.126;6.878;2023-03-07T05:36:16;3.30;99.90
52103;DHT22;38101;53.126;6.878;2023-03-07T05:38:42;3.30;99.90
52103;DHT22;38101;53.126;6.878;2023-03-07T05:41:07;3.30;99.90
52103;DHT22;38101;53.126;6.878;2023-03-07T05:43:33;3.30;99.90
52103;DHT22;38101;53.126;6.878;2023-03-07T05:46:01;3.30;99.90
52103;DHT22;38101;53.126;6.878;2023-03-07T05:48:30;3.30;99.90
52103;DHT22;38101;53.126;6.878;2023-03-07T05:50:59;3.40;99.90
52103;DHT22;38101;53.126;6.878;2023-03-07T05:53:27;3.30;99.90
52103;DHT22;38101;53.126;6.878;2023-03-07T05:55:53;3.30;99.90
52103;DHT22;38101;53.126;6.878;2023-03-07T05:58:19;3.20;99.90
52103;DHT22;38101;53.126;6.878;2023-03-07T06:00:44;3.20;99.90
52103;DHT22;38101;53.126;6.878;2023-03-07T06:03:10;3.30;99.90
52103;DHT22;38101;53.126;6.878;2023-03-07T06:05:36;3.30;99.90
52103;DHT22;38101;53.126;6.878;2023-03-07T06:08:01;3.30;99.90
52103;DHT22;38101;53.126;6.878;2023-03-07T06:10:31;3.20;99.90
52103;DHT22;38101;53.126;6.878;2023-03-07T06:13:00;3.10;99.90
52103;DHT22;38101;53.126;6.878;2023-03-07T06:15:25;3.10;99.90
52103;DHT22;38101;53.126;6.878;2023-03-07T06:17:51;3.10;99.90
52103;DHT22;38101;53.126;6.878;2023-03-07T06:20:19;3.10;99.90
52103;DHT22;38101;53.126;6.878;2023-03-07T06:22:46;3.10;99.90
52103;DHT22;38101;53.126;6.878;2023-03-07T06:25:12;3.10;99.90
52103;DHT22;38101;53.126;6.878;2023-03-07T06:27:39;3.10;99.90
52103;DHT22;38101;53.126;6.878;2023-03-07T06:30:06;3.10;99.90
52103;DHT22;38101;53.126;6.878;2023-03-07T06:32:33;3.10;99.90
52103;DHT22;38101;53.126;6.878;2023-03-07T06:34:59;3.10;99.90
52103;DHT22;38101;53.126;6.878;2023-03-07T06:37:24;3.10;99.90
52103;DHT22;38101;53.126;6.878;2023-03-07T06:39:52;3.10;99.90
52103;DHT22;38101;53.126;6.878;2023-03-07T06:42:18;3.10;99.90
52103;DHT22;38101;53.126;6.878;2023-03-07T06:44:43;3.10;99.90
52103;DHT22;38101;53.126;6.878;2023-03-07T06:47:09;3.10;99.90
52103;DHT22;38101;53.126;6.878;2023-03-07T06:49:35;3.10;99.90
52103;DHT22;38101;53.126;6.878;2023-03-07T06:52:00;3.10;99.90
52103;DHT22;38101;53.126;6.878;2023-03-07T06:54:26;3.10;99.90
52103;DHT22;38101;53.126;6.878;2023-03-07T06:56:52;3.20;99.90
52103;DHT22;38101;53.126;6.878;2023-03-07T06:59:17;3.20;99.90
52103;DHT22;38101;53.126;6.878;2023-03-07T07:01:44;3.20;99.90
52103;DHT22;38101;53.126;6.878;2023-03-07T07:04:10;3.20;99.90
52103;DHT22;38101;53.126;6.878;2023-03-07T07:06:36;3.30;99.90
52103;DHT22;38101;53.126;6.878;2023-03-07T07:09:02;3.30;99.90
52103;DHT22;38101;53.126;6.878;2023-03-07T07:11:29;3.30;99.90
52103;DHT22;38101;53.126;6.878;2023-03-07T07:13:55;3.30;99.90
52103;DHT22;38101;53.126;6.878;2023-03-07T07:16:21;3.30;99.90
52103;DHT22;38101;53.126;6.878;2023-03-07T07:18:49;3.30;99.90
52103;DHT22;38101;53.126;6.878;2023-03-07T07:21:16;3.40;99.90
52103;DHT22;38101;53.126;6.878;2023-03-07T07:23:42;3.40;99.90
52103;DHT22;38101;53.126;6.878;2023-03-07T07:26:07;3.40;99.90
52103;DHT22;38101;53.126;6.878;2023-03-07T07:28:33;3.40;99.90
52103;DHT22;38101;53.126;6.878;2023-03-07T07:30:59;3.40;99.90
52103;DHT22;38101;53.126;6.878;2023-03-07T07:33:25;3.40;99.90
52103;DHT22;38101;53.126;6.878;2023-03-07T07:35:51;3.40;99.90
52103;DHT22;38101;53.126;6.878;2023-03-07T07:38:16;3.30;99.90
52103;DHT22;38101;53.126;6.878;2023-03-07T07:40:42;3.40;99.90
52103;DHT22;38101;53.126;6.878;2023-03-07T07:43:13;3.40;99.90
52103;DHT22;38101;53.126;6.878;2023-03-07T07:45:39;3.40;99.90
52103;DHT22;38101;53.126;6.878;2023-03-07T07:48:05;3.40;99.90
52103;DHT22;38101;53.126;6.878;2023-03-07T07:50:30;3.40;99.90
52103;DHT22;38101;53.126;6.878;2023-03-07T07:52:56;3.50;99.90
52103;DHT22;38101;53.126;6.878;2023-03-07T07:55:22;3.40;99.90
52103;DHT22;38101;53.126;6.878;2023-03-07T07:57:50;3.40;99.90
52103;DHT22;38101;53.126;6.878;2023-03-07T08:00:16;3.40;99.90
52103;DHT22;38101;53.126;6.878;2023-03-07T08:02:47;3.40;99.90
52103;DHT22;38101;53.126;6.878;2023-03-07T08:05:14;3.50;99.90
52103;DHT22;38101;53.126;6.878;2023-03-07T08:07:40;3.50;99.90
52103;DHT22;38101;53.126;6.878;2023-03-07T08:10:06;3.50;99.90
52103;DHT22;38101;53.126;6.878;2023-03-07T08:12:32;3.50;99.90
52103;DHT22;38101;53.126;6.878;2023-03-07T08:14:58;3.40;99.90
52103;DHT22;38101;53.126;6.878;2023-03-07T08:17:23;3.50;99.90
52103;DHT22;38101;53.126;6.878;2023-03-07T08:19:49;3.50;99.90
52103;DHT22;38101;53.126;6.878;2023-03-07T08:22:15;3.50;99.90
52103;DHT22;38101;53.126;6.878;2023-03-07T08:24:41;3.50;99.90
52103;DHT22;38101;53.126;6.878;2023-03-07T08:27:07;3.50;99.90
52103;DHT22;38101;53.126;6.878;2023-03-07T08:29:33;3.60;99.90
52103;DHT22;38101;53.126;6.878;2023-03-07T08:32:00;3.60;99.90
52103;DHT22;38101;53.126;6.878;2023-03-07T08:34:26;3.60;99.90
52103;DHT22;38101;53.126;6.878;2023-03-07T08:36:51;3.70;99.90
52103;DHT22;38101;53.126;6.878;2023-03-07T08:39:17;3.70;99.90
52103;DHT22;38101;53.126;6.878;2023-03-07T08:41:43;3.70;99.90
52103;DHT22;38101;53.126;6.878;2023-03-07T08:44:09;3.60;99.90
52103;DHT22;38101;53.126;6.878;2023-03-07T08:46:34;3.70;99.90
52103;DHT22;38101;53.126;6.878;2023-03-07T08:49:00;3.80;99.90
52103;DHT22;38101;53.126;6.878;2023-03-07T08:51:26;3.90;99.90
52103;DHT22;38101;53.126;6.878;2023-03-07T08:53:53;3.90;99.90
52103;DHT22;38101;53.126;6.878;2023-03-07T08:56:18;3.90;99.90
52103;DHT22;38101;53.126;6.878;2023-03-07T08:58:44;3.80;99.90
52103;DHT22;38101;53.126;6.878;2023-03-07T09:01:11;3.80;99.90
52103;DHT22;38101;53.126;6.878;2023-03-07T09:03:37;3.80;99.90
52103;DHT22;38101;53.126;6.878;2023-03-07T09:06:04;3.80;99.90
52103;DHT22;38101;53.126;6.878;2023-03-07T09:08:30;3.90;99.90
52103;DHT22;38101;53.126;6.878;2023-03-07T09:10:59;3.70;99.90
52103;DHT22;38101;53.126;6.878;2023-03-07T09:13:25;3.40;99.90
52103;DHT22;38101;53.126;6.878;2023-03-07T09:15:51;3.10;99.90
52103;DHT22;38101;53.126;6.878;2023-03-07T09:18:16;3.10;99.90
52103;DHT22;38101;53.126;6.878;2023-03-07T09:20:42;3.00;99.90
52103;DHT22;38101;53.126;6.878;2023-03-07T09:23:09;2.90;99.90
52103;DHT22;38101;53.126;6.878;2023-03-07T09:25:35;2.90;99.90
52103;DHT22;38101;53.126;6.878;2023-03-07T09:28:01;2.90;99.90
52103;DHT22;38101;53.126;6.878;2023-03-07T09:30:28;2.90;99.90
52103;DHT22;38101;53.126;6.878;2023-03-07T09:32:54;3.10;99.90
52103;DHT22;38101;53.126;6.878;2023-03-07T09:35:20;3.20;99.90
52103;DHT22;38101;53.126;6.878;2023-03-07T09:37:46;3.30;99.90
52103;DHT22;38101;53.126;6.878;2023-03-07T09:40:18;3.40;99.90
52103;DHT22;38101;53.126;6.878;2023-03-07T09:51:17;3.60;99.90
52103;DHT22;38101;53.126;6.878;2023-03-07T09:53:50;3.60;99.90
52103;DHT22;38101;53.126;6.878;2023-03-07T09:56:24;3.50;99.90
52103;DHT22;38101;53.126;6.878;2023-03-07T09:59:29;3.50;99.90
52103;DHT22;38101;53.126;6.878;2023-03-07T10:02:00;3.50;99.90
52103;DHT22;38101;53.126;6.878;2023-03-07T10:04:38;3.50;99.90
52103;DHT22;38101;53.126;6.878;2023-03-07T10:07:08;3.50;99.90
52103;DHT22;38101;53.126;6.878;2023-03-07T10:09:34;3.50;99.90
52103;DHT22;38101;53.126;6.878;2023-03-07T10:21:06;3.60;99.90
52103;DHT22;38101;53.126;6.878;2023-03-07T10:28:32;3.70;99.90
52103;DHT22;38101;53.126;6.878;2023-03-07T10:33:36;3.60;99.90
52103;DHT22;38101;53.126;6.878;2023-03-07T10:36:38;3.70;99.90
52103;DHT22;38101;53.126;6.878;2023-03-07T10:41:50;3.90;99.90
52103;DHT22;38101;53.126;6.878;2023-03-07T10:44:20;4.00;99.90
52103;DHT22;38101;53.126;6.878;2023-03-07T10:46:47;4.20;99.90
52103;DHT22;38101;53.126;6.878;2023-03-07T10:49:19;4.10;99.90
52103;DHT22;38101;53.126;6.878;2023-03-07T10:52:02;4.10;99.90
52103;DHT22;38101;53.126;6.878;2023-03-07T10:54:35;4.10;99.90
52103;DHT22;38101;53.126;6.878;2023-03-07T10:59:30;4.20;99.90
52103;DHT22;38101;53.126;6.878;2023-03-07T11:01:58;4.20;99.90
52103;DHT22;38101;53.126;6.878;2023-03-07T11:04:28;4.30;99.90
52103;DHT22;38101;53.126;6.878;2023-03-07T11:07:00;4.30;99.90
52103;DHT22;38101;53.126;6.878;2023-03-07T11:09:29;4.30;99.90
52103;DHT22;38101;53.126;6.878;2023-03-07T11:12:09;4.40;99.90
52103;DHT22;38101;53.126;6.878;2023-03-07T11:14:48;4.40;99.90
52103;DHT22;38101;53.126;6.878;2023-03-07T11:17:39;4.50;99.90
52103;DHT22;38101;53.126;6.878;2023-03-07T11:20:27;4.50;99.90
52103;DHT22;38101;53.126;6.878;2023-03-07T11:23:13;4.60;99.90
52103;DHT22;38101;53.126;6.878;2023-03-07T11:25:39;4.60;99.90
52103;DHT22;38101;53.126;6.878;2023-03-07T11:28:26;4.60;99.90
52103;DHT22;38101;53.126;6.878;2023-03-07T11:31:17;4.70;99.90
52103;DHT22;38101;53.126;6.878;2023-03-07T11:34:11;4.70;99.90
52103;DHT22;38101;53.126;6.878;2023-03-07T11:36:41;4.70;99.90
52103;DHT22;38101;53.126;6.878;2023-03-07T11:41:47;4.90;99.90
52103;DHT22;38101;53.126;6.878;2023-03-07T11:50:39;5.00;99.90
52103;DHT22;38101;53.126;6.878;2023-03-07T11:55:35;5.10;99.90
52103;DHT22;38101;53.126;6.878;2023-03-07T12:00:48;5.30;99.90
52103;DHT22;38101;53.126;6.878;2023-03-07T12:08:32;5.50;99.90
52103;DHT22;38101;53.126;6.878;2023-03-07T12:14:14;4.90;99.90
52103;DHT22;38101;53.126;6.878;2023-03-07T12:22:21;4.10;99.90
52103;DHT22;38101;53.126;6.878;2023-03-07T12:27:36;4.00;99.90
52103;DHT22;38101;53.126;6.878;2023-03-07T12:30:11;3.90;99.90
52103;DHT22;38101;53.126;6.878;2023-03-07T12:32:39;3.90;99.90
52103;DHT22;38101;53.126;6.878;2023-03-07T12:35:28;3.90;99.90
52103;DHT22;38101;53.126;6.878;2023-03-07T12:38:03;4.00;99.90
52103;DHT22;38101;53.126;6.878;2023-03-07T12:40:39;4.00;99.90
52103;DHT22;38101;53.126;6.878;2023-03-07T12:43:33;4.10;99.90
52103;DHT22;38101;53.126;6.878;2023-03-07T12:51:35;4.30;99.90
52103;DHT22;38101;53.126;6.878;2023-03-07T12:54:31;4.40;99.90
52103;DHT22;38101;53.126;6.878;2023-03-07T12:57:16;4.40;99.90
52103;DHT22;38101;53.126;6.878;2023-03-07T12:59:42;4.50;99.90
52103;DHT22;38101;53.126;6.878;2023-03-07T13:02:23;4.60;99.90
52103;DHT22;38101;53.126;6.878;2023-03-07T13:04:49;4.70;99.90
52103;DHT22;38101;53.126;6.878;2023-03-07T13:07:23;4.80;99.90
52103;DHT22;38101;53.126;6.878;2023-03-07T13:09:52;4.80;99.90
52103;DHT22;38101;53.126;6.878;2023-03-07T13:27:55;5.20;99.90
52103;DHT22;38101;53.126;6.878;2023-03-07T13:46:03;6.30;99.90
52103;DHT22;38101;53.126;6.878;2023-03-07T13:58:38;5.70;99.90
52103;DHT22;38101;53.126;6.878;2023-03-07T14:01:21;5.60;99.90
52103;DHT22;38101;53.126;6.878;2023-03-07T14:03:51;5.50;99.90
52103;DHT22;38101;53.126;6.878;2023-03-07T14:06:41;5.30;99.90
52103;DHT22;38101;53.126;6.878;2023-03-07T14:09:13;5.20;99.90
52103;DHT22;38101;53.126;6.878;2023-03-07T14:11:59;5.20;99.90
52103;DHT22;38101;53.126;6.878;2023-03-07T14:25:47;4.90;99.90
52103;DHT22;38101;53.126;6.878;2023-03-07T14:28:21;4.80;99.90
52103;DHT22;38101;53.126;6.878;2023-03-07T14:30:55;4.80;99.90
52103;DHT22;38101;53.126;6.878;2023-03-07T14:33:32;4.80;99.90
52103;DHT22;38101;53.126;6.878;2023-03-07T14:35:58;5.00;99.90
52103;DHT22;38101;53.126;6.878;2023-03-07T14:38:25;5.10;99.90
52103;DHT22;38101;53.126;6.878;2023-03-07T14:41:10;5.10;99.90
52103;DHT22;38101;53.126;6.878;2023-03-07T14:43:47;5.00;99.90
52103;DHT22;38101;53.126;6.878;2023-03-07T14:51:47;4.50;99.90
52103;DHT22;38101;53.126;6.878;2023-03-07T14:54:16;4.50;99.90
52103;DHT22;38101;53.126;6.878;2023-03-07T14:56:43;4.50;99.90
52103;DHT22;38101;53.126;6.878;2023-03-07T14:59:12;4.40;99.90
52103;DHT22;38101;53.126;6.878;2023-03-07T15:01:39;4.50;99.90
52103;DHT22;38101;53.126;6.878;2023-03-07T15:04:26;4.60;99.90
52103;DHT22;38101;53.126;6.878;2023-03-07T15:07:03;4.70;99.90
52103;DHT22;38101;53.126;6.878;2023-03-07T15:09:30;4.70;99.90
52103;DHT22;38101;53.126;6.878;2023-03-07T15:12:17;4.80;99.90
52103;DHT22;38101;53.126;6.878;2023-03-07T15:14:53;4.80;99.90
52103;DHT22;38101;53.126;6.878;2023-03-07T15:17:26;4.80;99.90
52103;DHT22;38101;53.126;6.878;2023-03-07T15:20:04;4.80;99.90
52103;DHT22;38101;53.126;6.878;2023-03-07T15:22:33;4.80;99.90
52103;DHT22;38101;53.126;6.878;2023-03-07T15:25:04;4.80;99.90
52103;DHT22;38101;53.126;6.878;2023-03-07T15:27:31;4.70;99.90
52103;DHT22;38101;53.126;6.878;2023-03-07T15:30:02;4.80;99.90
52103;DHT22;38101;53.126;6.878;2023-03-07T15:32:40;4.90;99.90
52103;DHT22;38101;53.126;6.878;2023-03-07T15:42:48;4.60;99.90
52103;DHT22;38101;53.126;6.878;2023-03-07T15:45:29;4.70;99.90
52103;DHT22;38101;53.126;6.878;2023-03-07T15:47:58;4.70;99.90
52103;DHT22;38101;53.126;6.878;2023-03-07T15:50:25;4.60;99.90
52103;DHT22;38101;53.126;6.878;2023-03-07T15:53:01;4.30;99.90
52103;DHT22;38101;53.126;6.878;2023-03-07T15:55:30;4.10;99.90
52103;DHT22;38101;53.126;6.878;2023-03-07T15:58:04;3.90;99.90
52103;DHT22;38101;53.126;6.878;2023-03-07T16:00:39;3.80;99.90
52103;DHT22;38101;53.126;6.878;2023-03-07T16:03:27;3.50;99.90
52103;DHT22;38101;53.126;6.878;2023-03-07T16:05:53;3.30;99.90
52103;DHT22;38101;53.126;6.878;2023-03-07T16:08:19;3.20;99.90
52103;DHT22;38101;53.126;6.878;2023-03-07T16:13:19;3.20;99.90
52103;DHT22;38101;53.126;6.878;2023-03-07T16:15:57;3.20;99.90
52103;DHT22;38101;53.126;6.878;2023-03-07T16:18:26;3.10;99.90
52103;DHT22;38101;53.126;6.878;2023-03-07T16:20:53;3.10;99.90
52103;DHT22;38101;53.126;6.878;2023-03-07T16:23:18;3.10;99.90
52103;DHT22;38101;53.126;6.878;2023-03-07T16:25:44;3.20;99.90
52103;DHT22;38101;53.126;6.878;2023-03-07T16:28:11;3.40;99.90
52103;DHT22;38101;53.126;6.878;2023-03-07T16:30:37;3.70;99.90
52103;DHT22;38101;53.126;6.878;2023-03-07T16:33:04;4.00;99.90
52103;DHT22;38101;53.126;6.878;2023-03-07T16:35:30;4.20;99.90
52103;DHT22;38101;53.126;6.878;2023-03-07T16:37:55;4.30;99.90
52103;DHT22;38101;53.126;6.878;2023-03-07T16:40:22;4.40;99.90
52103;DHT22;38101;53.126;6.878;2023-03-07T16:42:48;4.50;99.90
52103;DHT22;38101;53.126;6.878;2023-03-07T16:47:51;4.50;99.90
52103;DHT22;38101;53.126;6.878;2023-03-07T16:50:25;4.40;99.90
52103;DHT22;38101;53.126;6.878;2023-03-07T16:52:51;4.40;99.90
52103;DHT22;38101;53.126;6.878;2023-03-07T16:55:17;4.20;99.90
52103;DHT22;38101;53.126;6.878;2023-03-07T16:57:50;4.20;99.90
52103;DHT22;38101;53.126;6.878;2023-03-07T17:00:19;4.00;99.90
52103;DHT22;38101;53.126;6.878;2023-03-07T17:02:46;3.90;99.90
52103;DHT22;38101;53.126;6.878;2023-03-07T17:05:24;3.80;99.90
52103;DHT22;38101;53.126;6.878;2023-03-07T17:07:55;3.60;99.90
52103;DHT22;38101;53.126;6.878;2023-03-07T17:10:22;3.50;99.90
52103;DHT22;38101;53.126;6.878;2023-03-07T17:12:48;3.40;99.90
52103;DHT22;38101;53.126;6.878;2023-03-07T17:15:17;3.40;99.90
52103;DHT22;38101;53.126;6.878;2023-03-07T17:17:44;3.30;99.90
52103;DHT22;38101;53.126;6.878;2023-03-07T17:20:16;3.20;99.90
52103;DHT22;38101;53.126;6.878;2023-03-07T17:22:42;3.20;99.90
52103;DHT22;38101;53.126;6.878;2023-03-07T17:25:08;3.00;99.90
52103;DHT22;38101;53.126;6.878;2023-03-07T17:27:38;2.90;99.90
52103;DHT22;38101;53.126;6.878;2023-03-07T17:30:06;2.90;99.90
52103;DHT22;38101;53.126;6.878;2023-03-07T17:32:32;2.80;99.90
52103;DHT22;38101;53.126;6.878;2023-03-07T17:34:58;2.70;99.90
52103;DHT22;38101;53.126;6.878;2023-03-07T17:37:23;2.70;99.90
52103;DHT22;38101;53.126;6.878;2023-03-07T17:39:49;2.60;99.90
52103;DHT22;38101;53.126;6.878;2023-03-07T17:42:15;2.60;99.90
52103;DHT22;38101;53.126;6.878;2023-03-07T17:44:40;2.50;99.90
52103;DHT22;38101;53.126;6.878;2023-03-07T17:47:06;2.50;99.90
52103;DHT22;38101;53.126;6.878;2023-03-07T17:49:33;2.50;99.90
52103;DHT22;38101;53.126;6.878;2023-03-07T17:51:59;2.50;99.90
52103;DHT22;38101;53.126;6.878;2023-03-07T17:54:25;2.50;99.90
52103;DHT22;38101;53.126;6.878;2023-03-07T17:56:51;2.50;99.90
52103;DHT22;38101;53.126;6.878;2023-03-07T17:59:17;2.50;99.90
52103;DHT22;38101;53.126;6.878;2023-03-07T18:01:42;2.50;99.90
52103;DHT22;38101;53.126;6.878;2023-03-07T18:04:08;2.50;99.90
52103;DHT22;38101;53.126;6.878;2023-03-07T18:06:34;2.40;99.90
52103;DHT22;38101;53.126;6.878;2023-03-07T18:09:01;2.30;99.90
52103;DHT22;38101;53.126;6.878;2023-03-07T18:11:27;2.20;99.90
52103;DHT22;38101;53.126;6.878;2023-03-07T18:13:52;2.10;99.90
52103;DHT22;38101;53.126;6.878;2023-03-07T18:16:18;2.10;99.90
52103;DHT22;38101;53.126;6.878;2023-03-07T18:18:44;2.00;99.90
52103;DHT22;38101;53.126;6.878;2023-03-07T18:21:13;2.10;99.90